sensor_id;sensor_type;location;lat;lon;timestamp;P1;durP1;ratioP1;P2;durP2;ratioP2
72132;SDS011;60008;50.826;6.896;2022-08-19T00:01:59;14.75;;;6.95;;
72132;SDS011;60008;50.826;6.896;2022-08-19T00:04:27;10.75;;;6.70;;
72132;SDS011;60008;50.826;6.896;2022-08-19T00:06:56;9.93;;;6.63;;
72132;SDS011;60008;50.826;6.896;2022-08-19T00:09:24;11.73;;;6.67;;
72132;SDS011;60008;50.826;6.896;2022-08-19T00:11:51;10.25;;;7.20;;
72132;SDS011;60008;50.826;6.896;2022-08-19T00:14:21;10.63;;;6.90;;
72132;SDS011;60008;50.826;6.896;2022-08-19T00:16:50;13.30;;;7.47;;
72132;SDS011;60008;50.826;6.896;2022-08-19T00:19:20;13.95;;;7.32;;
72132;SDS011;60008;50.826;6.896;2022-08-19T00:21:51;10.40;;;6.60;;
72132;SDS011;60008;50.826;6.896;2022-08-19T00:24:18;9.85;;;6.97;;
72132;SDS011;60008;50.826;6.896;2022-08-19T00:26:46;13.27;;;7.47;;
72132;SDS011;60008;50.826;6.896;2022-08-19T00:29:13;13.13;;;7.07;;
72132;SDS011;60008;50.826;6.896;2022-08-19T00:31:42;13.77;;;8.20;;
72132;SDS011;60008;50.826;6.896;2022-08-19T00:34:10;12.40;;;7.77;;
72132;SDS011;60008;50.826;6.896;2022-08-19T00:36:38;12.02;;;7.45;;
72132;SDS011;60008;50.826;6.896;2022-08-19T00:39:06;12.73;;;8.35;;
72132;SDS011;60008;50.826;6.896;2022-08-19T00:41:33;15.13;;;7.85;;
72132;SDS011;60008;50.826;6.896;2022-08-19T00:44:02;12.13;;;8.02;;
72132;SDS011;60008;50.826;6.896;2022-08-19T00:46:40;16.60;;;9.00;;
72132;SDS011;60008;50.826;6.896;2022-08-19T00:49:11;13.20;;;8.77;;
72132;SDS011;60008;50.826;6.896;2022-08-19T00:51:42;12.60;;;8.30;;
72132;SDS011;60008;50.826;6.896;2022-08-19T00:54:12;13.38;;;8.70;;
72132;SDS011;60008;50.826;6.896;2022-08-19T00:56:40;16.17;;;9.18;;
72132;SDS011;60008;50.826;6.896;2022-08-19T00:59:07;13.47;;;8.83;;
72132;SDS011;60008;50.826;6.896;2022-08-19T01:01:36;12.73;;;7.97;;
72132;SDS011;60008;50.826;6.896;2022-08-19T01:04:04;14.43;;;9.23;;
72132;SDS011;60008;50.826;6.896;2022-08-19T01:06:31;15.13;;;9.30;;
72132;SDS011;60008;50.826;6.896;2022-08-19T01:08:59;19.65;;;9.38;;
72132;SDS011;60008;50.826;6.896;2022-08-19T01:11:26;18.57;;;9.20;;
72132;SDS011;60008;50.826;6.896;2022-08-19T01:13:54;13.75;;;8.77;;
72132;SDS011;60008;50.826;6.896;2022-08-19T01:16:22;14.13;;;9.18;;
72132;SDS011;60008;50.826;6.896;2022-08-19T01:18:51;15.60;;;8.88;;
72132;SDS011;60008;50.826;6.896;2022-08-19T01:21:27;13.55;;;9.15;;
72132;SDS011;60008;50.826;6.896;2022-08-19T01:23:59;15.77;;;9.03;;
72132;SDS011;60008;50.826;6.896;2022-08-19T01:26:26;13.57;;;8.93;;
72132;SDS011;60008;50.826;6.896;2022-08-19T01:28:57;14.77;;;8.93;;
72132;SDS011;60008;50.826;6.896;2022-08-19T01:31:27;14.57;;;9.60;;
72132;SDS011;60008;50.826;6.896;2022-08-19T01:33:59;13.27;;;8.77;;
72132;SDS011;60008;50.826;6.896;2022-08-19T01:36:30;15.30;;;9.47;;
72132;SDS011;60008;50.826;6.896;2022-08-19T01:39:00;14.93;;;10.05;;
72132;SDS011;60008;50.826;6.896;2022-08-19T01:41:28;15.35;;;9.45;;
72132;SDS011;60008;50.826;6.896;2022-08-19T01:43:55;15.15;;;9.70;;
72132;SDS011;60008;50.826;6.896;2022-08-19T01:46:44;15.10;;;9.85;;
72132;SDS011;60008;50.826;6.896;2022-08-19T01:49:13;15.17;;;9.53;;
72132;SDS011;60008;50.826;6.896;2022-08-19T01:51:40;14.73;;;9.60;;
72132;SDS011;60008;50.826;6.896;2022-08-19T01:54:08;15.77;;;9.70;;
72132;SDS011;60008;50.826;6.896;2022-08-19T01:56:36;14.15;;;9.75;;
72132;SDS011;60008;50.826;6.896;2022-08-19T01:59:03;14.95;;;10.35;;
72132;SDS011;60008;50.826;6.896;2022-08-19T02:01:34;15.10;;;10.47;;
72132;SDS011;60008;50.826;6.896;2022-08-19T02:04:01;14.77;;;9.23;;
72132;SDS011;60008;50.826;6.896;2022-08-19T02:06:28;16.85;;;10.68;;
72132;SDS011;60008;50.826;6.896;2022-08-19T02:08:55;13.43;;;9.43;;
72132;SDS011;60008;50.826;6.896;2022-08-19T02:11:27;14.38;;;9.85;;
72132;SDS011;60008;50.826;6.896;2022-08-19T02:13:57;18.07;;;10.57;;
72132;SDS011;60008;50.826;6.896;2022-08-19T02:16:25;15.93;;;10.98;;
72132;SDS011;60008;50.826;6.896;2022-08-19T02:18:51;19.00;;;10.52;;
72132;SDS011;60008;50.826;6.896;2022-08-19T02:21:19;16.00;;;11.30;;
72132;SDS011;60008;50.826;6.896;2022-08-19T02:23:47;17.70;;;11.05;;
72132;SDS011;60008;50.826;6.896;2022-08-19T02:26:14;18.93;;;10.70;;
72132;SDS011;60008;50.826;6.896;2022-08-19T02:28:41;16.85;;;10.55;;
72132;SDS011;60008;50.826;6.896;2022-08-19T02:31:12;18.90;;;10.65;;
72132;SDS011;60008;50.826;6.896;2022-08-19T02:33:41;15.63;;;10.93;;
72132;SDS011;60008;50.826;6.896;2022-08-19T02:36:09;23.83;;;12.43;;
72132;SDS011;60008;50.826;6.896;2022-08-19T02:38:37;16.87;;;11.27;;
72132;SDS011;60008;50.826;6.896;2022-08-19T02:41:05;15.90;;;10.95;;
72132;SDS011;60008;50.826;6.896;2022-08-19T02:43:37;17.48;;;11.80;;
72132;SDS011;60008;50.826;6.896;2022-08-19T02:48:40;18.13;;;11.73;;
72132;SDS011;60008;50.826;6.896;2022-08-19T02:51:07;15.73;;;11.17;;
72132;SDS011;60008;50.826;6.896;2022-08-19T02:53:34;17.75;;;11.65;;
72132;SDS011;60008;50.826;6.896;2022-08-19T02:56:01;17.73;;;11.60;;
72132;SDS011;60008;50.826;6.896;2022-08-19T02:58:32;17.58;;;11.15;;
72132;SDS011;60008;50.826;6.896;2022-08-19T03:00:58;17.02;;;11.93;;
72132;SDS011;60008;50.826;6.896;2022-08-19T03:03:25;21.30;;;12.70;;
72132;SDS011;60008;50.826;6.896;2022-08-19T03:06:02;17.92;;;12.40;;
72132;SDS011;60008;50.826;6.896;2022-08-19T03:08:40;17.63;;;11.75;;
72132;SDS011;60008;50.826;6.896;2022-08-19T03:11:17;21.15;;;12.35;;
72132;SDS011;60008;50.826;6.896;2022-08-19T03:13:44;20.13;;;12.73;;
72132;SDS011;60008;50.826;6.896;2022-08-19T03:16:11;18.20;;;11.93;;
72132;SDS011;60008;50.826;6.896;2022-08-19T03:18:38;19.42;;;12.52;;
72132;SDS011;60008;50.826;6.896;2022-08-19T03:21:05;20.45;;;12.23;;
72132;SDS011;60008;50.826;6.896;2022-08-19T03:23:37;19.05;;;11.75;;
72132;SDS011;60008;50.826;6.896;2022-08-19T03:26:05;17.60;;;12.05;;
72132;SDS011;60008;50.826;6.896;2022-08-19T03:28:42;16.20;;;11.43;;
72132;SDS011;60008;50.826;6.896;2022-08-19T03:31:23;22.05;;;13.63;;
72132;SDS011;60008;50.826;6.896;2022-08-19T03:34:18;21.30;;;13.82;;
72132;SDS011;60008;50.826;6.896;2022-08-19T03:36:47;22.33;;;13.57;;
72132;SDS011;60008;50.826;6.896;2022-08-19T03:39:14;21.65;;;13.27;;
72132;SDS011;60008;50.826;6.896;2022-08-19T03:41:43;21.00;;;13.23;;
72132;SDS011;60008;50.826;6.896;2022-08-19T03:44:13;21.73;;;14.45;;
72132;SDS011;60008;50.826;6.896;2022-08-19T03:46:44;20.63;;;14.25;;
72132;SDS011;60008;50.826;6.896;2022-08-19T03:49:12;21.75;;;13.80;;
72132;SDS011;60008;50.826;6.896;2022-08-19T03:51:40;21.75;;;14.07;;
72132;SDS011;60008;50.826;6.896;2022-08-19T03:54:09;21.70;;;13.90;;
72132;SDS011;60008;50.826;6.896;2022-08-19T03:56:38;24.23;;;14.27;;
72132;SDS011;60008;50.826;6.896;2022-08-19T03:59:07;23.77;;;14.93;;
72132;SDS011;60008;50.826;6.896;2022-08-19T04:01:35;25.33;;;14.85;;
72132;SDS011;60008;50.826;6.896;2022-08-19T04:04:02;22.85;;;14.10;;
72132;SDS011;60008;50.826;6.896;2022-08-19T04:06:33;24.80;;;13.57;;
72132;SDS011;60008;50.826;6.896;2022-08-19T04:09:05;22.92;;;15.25;;
72132;SDS011;60008;50.826;6.896;2022-08-19T04:11:38;24.52;;;15.70;;
72132;SDS011;60008;50.826;6.896;2022-08-19T04:14:10;24.52;;;15.18;;
72132;SDS011;60008;50.826;6.896;2022-08-19T04:16:39;24.30;;;16.42;;
72132;SDS011;60008;50.826;6.896;2022-08-19T04:19:06;26.67;;;16.23;;
72132;SDS011;60008;50.826;6.896;2022-08-19T04:21:33;25.95;;;15.68;;
72132;SDS011;60008;50.826;6.896;2022-08-19T04:24:00;27.65;;;16.65;;
72132;SDS011;60008;50.826;6.896;2022-08-19T04:26:34;27.00;;;15.75;;
72132;SDS011;60008;50.826;6.896;2022-08-19T04:29:03;29.23;;;17.13;;
72132;SDS011;60008;50.826;6.896;2022-08-19T04:31:38;27.43;;;15.93;;
72132;SDS011;60008;50.826;6.896;2022-08-19T04:34:06;32.88;;;17.00;;
72132;SDS011;60008;50.826;6.896;2022-08-19T04:36:37;27.60;;;16.58;;
72132;SDS011;60008;50.826;6.896;2022-08-19T04:39:08;26.67;;;16.23;;
72132;SDS011;60008;50.826;6.896;2022-08-19T04:41:42;30.40;;;17.63;;
72132;SDS011;60008;50.826;6.896;2022-08-19T04:44:27;30.87;;;17.43;;
72132;SDS011;60008;50.826;6.896;2022-08-19T04:46:58;30.33;;;16.65;;
72132;SDS011;60008;50.826;6.896;2022-08-19T04:49:26;28.13;;;16.25;;
72132;SDS011;60008;50.826;6.896;2022-08-19T04:51:53;27.23;;;16.98;;
72132;SDS011;60008;50.826;6.896;2022-08-19T04:54:21;29.38;;;16.92;;
72132;SDS011;60008;50.826;6.896;2022-08-19T04:57:05;27.83;;;16.77;;
72132;SDS011;60008;50.826;6.896;2022-08-19T04:59:35;24.35;;;16.30;;
72132;SDS011;60008;50.826;6.896;2022-08-19T05:02:03;27.13;;;17.27;;
72132;SDS011;60008;50.826;6.896;2022-08-19T05:04:30;26.33;;;16.52;;
72132;SDS011;60008;50.826;6.896;2022-08-19T05:06:58;24.65;;;16.17;;
72132;SDS011;60008;50.826;6.896;2022-08-19T05:09:28;29.97;;;16.60;;
72132;SDS011;60008;50.826;6.896;2022-08-19T05:12:15;27.55;;;17.42;;
72132;SDS011;60008;50.826;6.896;2022-08-19T05:14:42;27.05;;;16.13;;
72132;SDS011;60008;50.826;6.896;2022-08-19T05:17:10;30.92;;;17.77;;
72132;SDS011;60008;50.826;6.896;2022-08-19T05:19:54;28.63;;;17.55;;
72132;SDS011;60008;50.826;6.896;2022-08-19T05:22:40;29.77;;;17.23;;
72132;SDS011;60008;50.826;6.896;2022-08-19T05:25:08;28.67;;;16.67;;
72132;SDS011;60008;50.826;6.896;2022-08-19T05:27:40;30.17;;;17.73;;
72132;SDS011;60008;50.826;6.896;2022-08-19T05:30:08;28.70;;;17.42;;
72132;SDS011;60008;50.826;6.896;2022-08-19T05:32:36;27.17;;;16.38;;
72132;SDS011;60008;50.826;6.896;2022-08-19T05:35:04;30.07;;;17.33;;
72132;SDS011;60008;50.826;6.896;2022-08-19T05:37:31;27.70;;;17.85;;
72132;SDS011;60008;50.826;6.896;2022-08-19T05:40:00;28.30;;;18.05;;
72132;SDS011;60008;50.826;6.896;2022-08-19T05:42:27;32.20;;;16.80;;
72132;SDS011;60008;50.826;6.896;2022-08-19T05:44:54;29.67;;;17.33;;
72132;SDS011;60008;50.826;6.896;2022-08-19T05:47:22;28.50;;;16.90;;
72132;SDS011;60008;50.826;6.896;2022-08-19T05:49:49;29.52;;;17.70;;
72132;SDS011;60008;50.826;6.896;2022-08-19T05:52:16;27.98;;;16.73;;
72132;SDS011;60008;50.826;6.896;2022-08-19T05:54:51;32.60;;;18.40;;
72132;SDS011;60008;50.826;6.896;2022-08-19T05:57:18;31.80;;;18.17;;
72132;SDS011;60008;50.826;6.896;2022-08-19T05:59:45;32.10;;;18.60;;
72132;SDS011;60008;50.826;6.896;2022-08-19T06:02:18;33.78;;;18.13;;
72132;SDS011;60008;50.826;6.896;2022-08-19T06:04:45;32.45;;;18.45;;
72132;SDS011;60008;50.826;6.896;2022-08-19T06:07:12;30.50;;;18.08;;
72132;SDS011;60008;50.826;6.896;2022-08-19T06:09:39;30.38;;;18.35;;
72132;SDS011;60008;50.826;6.896;2022-08-19T06:12:06;30.20;;;18.57;;
72132;SDS011;60008;50.826;6.896;2022-08-19T06:14:34;29.73;;;17.05;;
72132;SDS011;60008;50.826;6.896;2022-08-19T06:17:05;31.45;;;17.73;;
72132;SDS011;60008;50.826;6.896;2022-08-19T06:19:32;35.28;;;18.98;;
72132;SDS011;60008;50.826;6.896;2022-08-19T06:22:06;31.85;;;18.10;;
72132;SDS011;60008;50.826;6.896;2022-08-19T06:24:33;31.07;;;18.70;;
72132;SDS011;60008;50.826;6.896;2022-08-19T06:27:01;33.42;;;19.10;;
72132;SDS011;60008;50.826;6.896;2022-08-19T06:29:31;30.85;;;18.42;;
72132;SDS011;60008;50.826;6.896;2022-08-19T06:31:59;37.75;;;19.73;;
72132;SDS011;60008;50.826;6.896;2022-08-19T06:34:29;34.30;;;19.38;;
72132;SDS011;60008;50.826;6.896;2022-08-19T06:36:58;36.37;;;20.27;;
72132;SDS011;60008;50.826;6.896;2022-08-19T06:39:28;33.35;;;19.25;;
72132;SDS011;60008;50.826;6.896;2022-08-19T06:41:57;36.58;;;19.48;;
72132;SDS011;60008;50.826;6.896;2022-08-19T06:44:27;34.72;;;20.60;;
72132;SDS011;60008;50.826;6.896;2022-08-19T06:46:57;41.67;;;18.55;;
72132;SDS011;60008;50.826;6.896;2022-08-19T06:49:23;34.40;;;18.07;;
72132;SDS011;60008;50.826;6.896;2022-08-19T06:51:58;31.98;;;18.33;;
72132;SDS011;60008;50.826;6.896;2022-08-19T06:54:27;34.30;;;17.73;;
72132;SDS011;60008;50.826;6.896;2022-08-19T06:56:57;33.08;;;16.58;;
72132;SDS011;60008;50.826;6.896;2022-08-19T06:59:24;29.05;;;16.65;;
72132;SDS011;60008;50.826;6.896;2022-08-19T07:01:55;33.27;;;17.37;;
72132;SDS011;60008;50.826;6.896;2022-08-19T07:04:24;32.10;;;16.60;;
72132;SDS011;60008;50.826;6.896;2022-08-19T07:07:04;32.78;;;18.63;;
72132;SDS011;60008;50.826;6.896;2022-08-19T07:09:46;33.53;;;18.25;;
72132;SDS011;60008;50.826;6.896;2022-08-19T07:12:25;31.33;;;17.45;;
72132;SDS011;60008;50.826;6.896;2022-08-19T07:14:55;29.80;;;17.90;;
72132;SDS011;60008;50.826;6.896;2022-08-19T07:17:22;29.95;;;16.05;;
72132;SDS011;60008;50.826;6.896;2022-08-19T07:19:49;29.67;;;18.17;;
72132;SDS011;60008;50.826;6.896;2022-08-19T07:22:19;32.15;;;17.50;;
72132;SDS011;60008;50.826;6.896;2022-08-19T07:24:49;35.35;;;17.52;;
72132;SDS011;60008;50.826;6.896;2022-08-19T07:27:16;31.23;;;17.90;;
72132;SDS011;60008;50.826;6.896;2022-08-19T07:29:50;36.70;;;18.60;;
72132;SDS011;60008;50.826;6.896;2022-08-19T07:32:22;32.45;;;17.45;;
72132;SDS011;60008;50.826;6.896;2022-08-19T07:34:52;33.38;;;17.40;;
72132;SDS011;60008;50.826;6.896;2022-08-19T07:37:18;30.83;;;17.00;;
72132;SDS011;60008;50.826;6.896;2022-08-19T07:39:45;29.30;;;16.27;;
72132;SDS011;60008;50.826;6.896;2022-08-19T07:42:12;30.30;;;15.70;;
72132;SDS011;60008;50.826;6.896;2022-08-19T07:44:40;31.17;;;17.40;;
72132;SDS011;60008;50.826;6.896;2022-08-19T07:47:15;27.85;;;16.05;;
72132;SDS011;60008;50.826;6.896;2022-08-19T07:50:05;32.78;;;16.98;;
72132;SDS011;60008;50.826;6.896;2022-08-19T07:52:35;29.00;;;17.33;;
72132;SDS011;60008;50.826;6.896;2022-08-19T07:55:05;28.50;;;17.33;;
72132;SDS011;60008;50.826;6.896;2022-08-19T07:57:53;36.65;;;17.15;;
72132;SDS011;60008;50.826;6.896;2022-08-19T08:00:20;36.60;;;18.23;;
72132;SDS011;60008;50.826;6.896;2022-08-19T08:02:50;33.72;;;18.27;;
72132;SDS011;60008;50.826;6.896;2022-08-19T08:05:20;33.03;;;17.90;;
72132;SDS011;60008;50.826;6.896;2022-08-19T08:08:09;33.80;;;18.67;;
72132;SDS011;60008;50.826;6.896;2022-08-19T08:10:54;38.45;;;19.10;;
72132;SDS011;60008;50.826;6.896;2022-08-19T08:13:23;38.15;;;19.15;;
72132;SDS011;60008;50.826;6.896;2022-08-19T08:15:51;39.45;;;20.55;;
72132;SDS011;60008;50.826;6.896;2022-08-19T08:18:21;38.07;;;20.23;;
72132;SDS011;60008;50.826;6.896;2022-08-19T08:20:55;44.83;;;21.02;;
72132;SDS011;60008;50.826;6.896;2022-08-19T08:23:23;43.42;;;20.60;;
72132;SDS011;60008;50.826;6.896;2022-08-19T08:25:52;51.22;;;22.35;;
72132;SDS011;60008;50.826;6.896;2022-08-19T08:28:21;44.03;;;21.17;;
72132;SDS011;60008;50.826;6.896;2022-08-19T08:30:49;43.17;;;21.27;;
72132;SDS011;60008;50.826;6.896;2022-08-19T08:33:18;44.35;;;22.33;;
72132;SDS011;60008;50.826;6.896;2022-08-19T08:35:59;41.63;;;20.77;;
72132;SDS011;60008;50.826;6.896;2022-08-19T08:38:29;40.45;;;21.75;;
72132;SDS011;60008;50.826;6.896;2022-08-19T08:41:07;50.70;;;24.38;;
72132;SDS011;60008;50.826;6.896;2022-08-19T08:43:46;44.27;;;21.53;;
72132;SDS011;60008;50.826;6.896;2022-08-19T08:47:01;46.05;;;22.13;;
72132;SDS011;60008;50.826;6.896;2022-08-19T08:52:40;42.30;;;22.33;;
72132;SDS011;60008;50.826;6.896;2022-08-19T08:54:50;39.33;;;21.92;;
72132;SDS011;60008;50.826;6.896;2022-08-19T09:00:15;41.72;;;21.25;;
72132;SDS011;60008;50.826;6.896;2022-08-19T09:02:46;32.13;;;18.63;;
72132;SDS011;60008;50.826;6.896;2022-08-19T09:05:16;37.08;;;19.52;;
72132;SDS011;60008;50.826;6.896;2022-08-19T09:10:44;34.47;;;19.20;;
72132;SDS011;60008;50.826;6.896;2022-08-19T09:13:33;35.03;;;18.40;;
72132;SDS011;60008;50.826;6.896;2022-08-19T09:16:09;30.55;;;17.60;;
72132;SDS011;60008;50.826;6.896;2022-08-19T09:18:42;34.30;;;18.30;;
72132;SDS011;60008;50.826;6.896;2022-08-19T09:21:10;33.40;;;18.38;;
72132;SDS011;60008;50.826;6.896;2022-08-19T09:23:37;22.65;;;14.82;;
72132;SDS011;60008;50.826;6.896;2022-08-19T09:26:10;28.53;;;15.23;;
72132;SDS011;60008;50.826;6.896;2022-08-19T09:28:42;29.70;;;14.88;;
72132;SDS011;60008;50.826;6.896;2022-08-19T09:31:15;27.42;;;15.25;;
72132;SDS011;60008;50.826;6.896;2022-08-19T09:33:44;20.25;;;13.88;;
72132;SDS011;60008;50.826;6.896;2022-08-19T09:36:12;20.65;;;13.48;;
72132;SDS011;60008;50.826;6.896;2022-08-19T09:38:59;19.77;;;12.10;;
72132;SDS011;60008;50.826;6.896;2022-08-19T09:41:27;27.13;;;12.00;;
72132;SDS011;60008;50.826;6.896;2022-08-19T09:43:55;17.13;;;10.00;;
72132;SDS011;60008;50.826;6.896;2022-08-19T09:46:25;19.83;;;10.68;;
72132;SDS011;60008;50.826;6.896;2022-08-19T09:48:54;17.30;;;11.10;;
72132;SDS011;60008;50.826;6.896;2022-08-19T09:51:31;15.35;;;10.35;;
72132;SDS011;60008;50.826;6.896;2022-08-19T09:54:02;14.60;;;10.68;;
72132;SDS011;60008;50.826;6.896;2022-08-19T09:56:30;24.70;;;11.60;;
72132;SDS011;60008;50.826;6.896;2022-08-19T09:59:00;19.80;;;10.10;;
72132;SDS011;60008;50.826;6.896;2022-08-19T10:01:28;13.07;;;8.98;;
72132;SDS011;60008;50.826;6.896;2022-08-19T10:03:57;12.40;;;8.05;;
72132;SDS011;60008;50.826;6.896;2022-08-19T10:06:26;14.75;;;8.57;;
72132;SDS011;60008;50.826;6.896;2022-08-19T10:09:11;18.02;;;8.20;;
72132;SDS011;60008;50.826;6.896;2022-08-19T10:11:39;12.07;;;7.90;;
72132;SDS011;60008;50.826;6.896;2022-08-19T10:14:17;16.67;;;9.80;;
72132;SDS011;60008;50.826;6.896;2022-08-19T10:16:48;13.70;;;8.45;;
72132;SDS011;60008;50.826;6.896;2022-08-19T10:19:15;13.13;;;8.48;;
72132;SDS011;60008;50.826;6.896;2022-08-19T10:21:51;12.70;;;8.50;;
72132;SDS011;60008;50.826;6.896;2022-08-19T10:24:18;10.73;;;7.13;;
72132;SDS011;60008;50.826;6.896;2022-08-19T10:26:46;12.93;;;8.07;;
72132;SDS011;60008;50.826;6.896;2022-08-19T10:29:24;8.57;;;6.60;;
72132;SDS011;60008;50.826;6.896;2022-08-19T10:31:58;14.65;;;7.30;;
72132;SDS011;60008;50.826;6.896;2022-08-19T10:34:29;16.63;;;8.48;;
72132;SDS011;60008;50.826;6.896;2022-08-19T10:36:57;11.55;;;7.68;;
72132;SDS011;60008;50.826;6.896;2022-08-19T10:39:27;13.40;;;8.63;;
72132;SDS011;60008;50.826;6.896;2022-08-19T10:42:08;15.00;;;9.77;;
72132;SDS011;60008;50.826;6.896;2022-08-19T10:44:37;23.83;;;8.07;;
72132;SDS011;60008;50.826;6.896;2022-08-19T10:47:03;12.30;;;7.93;;
72132;SDS011;60008;50.826;6.896;2022-08-19T10:49:49;12.50;;;7.50;;
72132;SDS011;60008;50.826;6.896;2022-08-19T10:52:37;18.38;;;9.15;;
72132;SDS011;60008;50.826;6.896;2022-08-19T10:55:16;12.45;;;8.73;;
72132;SDS011;60008;50.826;6.896;2022-08-19T10:58:10;12.73;;;9.05;;
72132;SDS011;60008;50.826;6.896;2022-08-19T11:00:38;15.37;;;8.80;;
72132;SDS011;60008;50.826;6.896;2022-08-19T11:03:06;14.60;;;9.50;;
72132;SDS011;60008;50.826;6.896;2022-08-19T11:05:34;28.38;;;10.55;;
72132;SDS011;60008;50.826;6.896;2022-08-19T11:08:05;18.00;;;11.25;;
72132;SDS011;60008;50.826;6.896;2022-08-19T11:10:48;14.73;;;9.20;;
72132;SDS011;60008;50.826;6.896;2022-08-19T11:13:15;14.00;;;8.68;;
72132;SDS011;60008;50.826;6.896;2022-08-19T11:15:42;14.10;;;8.50;;
72132;SDS011;60008;50.826;6.896;2022-08-19T11:18:09;14.70;;;9.07;;
72132;SDS011;60008;50.826;6.896;2022-08-19T11:20:38;14.30;;;8.05;;
72132;SDS011;60008;50.826;6.896;2022-08-19T11:23:05;17.15;;;10.85;;
72132;SDS011;60008;50.826;6.896;2022-08-19T11:25:32;15.50;;;10.25;;
72132;SDS011;60008;50.826;6.896;2022-08-19T11:27:59;15.82;;;9.38;;
72132;SDS011;60008;50.826;6.896;2022-08-19T11:30:26;17.00;;;10.50;;
72132;SDS011;60008;50.826;6.896;2022-08-19T11:32:54;12.60;;;7.87;;
72132;SDS011;60008;50.826;6.896;2022-08-19T11:35:20;11.75;;;8.27;;
72132;SDS011;60008;50.826;6.896;2022-08-19T11:37:49;14.95;;;10.32;;
72132;SDS011;60008;50.826;6.896;2022-08-19T11:40:16;16.50;;;10.05;;
72132;SDS011;60008;50.826;6.896;2022-08-19T11:42:42;13.88;;;9.48;;
72132;SDS011;60008;50.826;6.896;2022-08-19T11:45:25;15.23;;;10.23;;
72132;SDS011;60008;50.826;6.896;2022-08-19T11:47:54;15.33;;;9.10;;
72132;SDS011;60008;50.826;6.896;2022-08-19T11:50:21;12.98;;;9.38;;
72132;SDS011;60008;50.826;6.896;2022-08-19T11:52:49;14.23;;;10.40;;
72132;SDS011;60008;50.826;6.896;2022-08-19T11:55:20;14.93;;;10.13;;
72132;SDS011;60008;50.826;6.896;2022-08-19T11:57:46;16.13;;;9.88;;
72132;SDS011;60008;50.826;6.896;2022-08-19T12:00:13;15.07;;;10.43;;
72132;SDS011;60008;50.826;6.896;2022-08-19T12:02:40;17.60;;;10.30;;
72132;SDS011;60008;50.826;6.896;2022-08-19T12:05:07;18.85;;;10.32;;
72132;SDS011;60008;50.826;6.896;2022-08-19T12:07:38;15.27;;;9.85;;
72132;SDS011;60008;50.826;6.896;2022-08-19T12:10:09;18.80;;;9.90;;
72132;SDS011;60008;50.826;6.896;2022-08-19T12:12:36;19.45;;;11.43;;
72132;SDS011;60008;50.826;6.896;2022-08-19T12:15:09;13.70;;;9.77;;
72132;SDS011;60008;50.826;6.896;2022-08-19T12:17:37;18.95;;;12.80;;
72132;SDS011;60008;50.826;6.896;2022-08-19T12:20:04;16.38;;;10.35;;
72132;SDS011;60008;50.826;6.896;2022-08-19T12:22:32;13.95;;;9.15;;
72132;SDS011;60008;50.826;6.896;2022-08-19T12:24:59;16.00;;;10.32;;
72132;SDS011;60008;50.826;6.896;2022-08-19T12:27:27;17.33;;;9.53;;
72132;SDS011;60008;50.826;6.896;2022-08-19T12:30:07;15.87;;;9.37;;
72132;SDS011;60008;50.826;6.896;2022-08-19T12:32:37;14.88;;;8.73;;
72132;SDS011;60008;50.826;6.896;2022-08-19T12:35:04;15.77;;;8.90;;
72132;SDS011;60008;50.826;6.896;2022-08-19T12:37:32;15.10;;;8.82;;
72132;SDS011;60008;50.826;6.896;2022-08-19T12:39:59;14.93;;;9.05;;
72132;SDS011;60008;50.826;6.896;2022-08-19T12:42:27;15.63;;;9.97;;
72132;SDS011;60008;50.826;6.896;2022-08-19T12:44:53;15.90;;;9.07;;
72132;SDS011;60008;50.826;6.896;2022-08-19T12:47:21;15.98;;;9.50;;
72132;SDS011;60008;50.826;6.896;2022-08-19T12:49:48;16.25;;;9.45;;
72132;SDS011;60008;50.826;6.896;2022-08-19T12:52:20;15.50;;;8.85;;
72132;SDS011;60008;50.826;6.896;2022-08-19T12:54:49;12.63;;;7.90;;
72132;SDS011;60008;50.826;6.896;2022-08-19T12:57:20;13.63;;;7.73;;
72132;SDS011;60008;50.826;6.896;2022-08-19T12:59:57;12.45;;;7.30;;
72132;SDS011;60008;50.826;6.896;2022-08-19T13:02:24;12.75;;;7.90;;
72132;SDS011;60008;50.826;6.896;2022-08-19T13:04:51;12.23;;;7.30;;
72132;SDS011;60008;50.826;6.896;2022-08-19T13:07:17;9.57;;;6.22;;
72132;SDS011;60008;50.826;6.896;2022-08-19T13:09:44;10.70;;;6.50;;
72132;SDS011;60008;50.826;6.896;2022-08-19T13:12:10;11.23;;;6.85;;
72132;SDS011;60008;50.826;6.896;2022-08-19T13:14:39;12.85;;;6.93;;
72132;SDS011;60008;50.826;6.896;2022-08-19T13:17:07;11.60;;;6.43;;
72132;SDS011;60008;50.826;6.896;2022-08-19T13:19:35;12.20;;;7.78;;
72132;SDS011;60008;50.826;6.896;2022-08-19T13:22:03;13.67;;;6.90;;
72132;SDS011;60008;50.826;6.896;2022-08-19T13:24:38;14.30;;;7.03;;
72132;SDS011;60008;50.826;6.896;2022-08-19T13:27:10;11.43;;;6.30;;
72132;SDS011;60008;50.826;6.896;2022-08-19T13:29:39;8.95;;;6.00;;
72132;SDS011;60008;50.826;6.896;2022-08-19T13:32:24;11.07;;;5.95;;
72132;SDS011;60008;50.826;6.896;2022-08-19T13:35:10;10.57;;;5.87;;
72132;SDS011;60008;50.826;6.896;2022-08-19T13:37:41;12.27;;;6.70;;
72132;SDS011;60008;50.826;6.896;2022-08-19T13:42:45;10.77;;;6.93;;
72132;SDS011;60008;50.826;6.896;2022-08-19T13:45:14;13.50;;;7.10;;
72132;SDS011;60008;50.826;6.896;2022-08-19T13:47:47;11.20;;;6.30;;
72132;SDS011;60008;50.826;6.896;2022-08-19T13:50:21;10.40;;;6.50;;
72132;SDS011;60008;50.826;6.896;2022-08-19T13:52:54;15.73;;;7.00;;
72132;SDS011;60008;50.826;6.896;2022-08-19T13:55:22;13.93;;;7.20;;
72132;SDS011;60008;50.826;6.896;2022-08-19T13:57:54;16.38;;;7.82;;
72132;SDS011;60008;50.826;6.896;2022-08-19T14:00:23;17.55;;;7.25;;
72132;SDS011;60008;50.826;6.896;2022-08-19T14:02:53;11.93;;;7.50;;
72132;SDS011;60008;50.826;6.896;2022-08-19T14:05:22;10.57;;;6.23;;
72132;SDS011;60008;50.826;6.896;2022-08-19T14:07:50;10.13;;;6.32;;
72132;SDS011;60008;50.826;6.896;2022-08-19T14:10:17;10.25;;;6.05;;
72132;SDS011;60008;50.826;6.896;2022-08-19T14:12:45;12.73;;;6.03;;
72132;SDS011;60008;50.826;6.896;2022-08-19T14:15:13;9.48;;;6.32;;
72132;SDS011;60008;50.826;6.896;2022-08-19T14:17:40;17.47;;;7.00;;
72132;SDS011;60008;50.826;6.896;2022-08-19T14:20:09;12.55;;;7.07;;
72132;SDS011;60008;50.826;6.896;2022-08-19T14:22:44;12.55;;;6.63;;
72132;SDS011;60008;50.826;6.896;2022-08-19T14:25:16;10.20;;;6.28;;
72132;SDS011;60008;50.826;6.896;2022-08-19T14:27:46;12.50;;;6.35;;
72132;SDS011;60008;50.826;6.896;2022-08-19T14:30:15;14.40;;;7.50;;
72132;SDS011;60008;50.826;6.896;2022-08-19T14:32:44;12.95;;;6.40;;
72132;SDS011;60008;50.826;6.896;2022-08-19T14:35:11;12.23;;;6.57;;
72132;SDS011;60008;50.826;6.896;2022-08-19T14:37:40;14.65;;;8.10;;
72132;SDS011;60008;50.826;6.896;2022-08-19T14:40:11;8.55;;;5.30;;
72132;SDS011;60008;50.826;6.896;2022-08-19T14:42:40;15.47;;;5.00;;
72132;SDS011;60008;50.826;6.896;2022-08-19T14:45:08;7.20;;;4.27;;
72132;SDS011;60008;50.826;6.896;2022-08-19T14:47:37;7.13;;;4.05;;
72132;SDS011;60008;50.826;6.896;2022-08-19T14:50:08;7.32;;;3.63;;
72132;SDS011;60008;50.826;6.896;2022-08-19T14:52:44;7.18;;;4.20;;
72132;SDS011;60008;50.826;6.896;2022-08-19T14:55:14;7.50;;;3.72;;
72132;SDS011;60008;50.826;6.896;2022-08-19T14:57:42;6.43;;;3.23;;
72132;SDS011;60008;50.826;6.896;2022-08-19T15:00:10;4.97;;;2.60;;
72132;SDS011;60008;50.826;6.896;2022-08-19T15:02:41;5.28;;;3.00;;